METAR Data
IDs: Format: Raw Decoded Include TAF

Data at: 0154 UTC 16 Jan 2019

NZCH 160130Z AUTO 07017KT 9999 NCD 20/12 Q1012 NOSIG
NZCH 160100Z AUTO 07016KT 9999 NCD 19/12 Q1012 NOSIG
NZCH 160030Z AUTO 08015KT 9999 NCD 19/12 Q1012 NOSIG
NZCH 160000Z AUTO 07014KT 020V090 9999 NCD 19/12 Q1013 NOSIG
NZCH 152330Z AUTO 07013KT 030V110 9999 NCD 19/12 Q1013 NOSIG
NZCH 152300Z AUTO 04013KT 020V080 9999 NCD 19/11 Q1013 NOSIG

TAF NZCH 152300Z 1600/1700 06015KT 9999 FEW025
  BECMG 1612/1614 VRB02KT
  PROB30 1615/1619 0500 FG
  BECMG 1622/1700 06010KT